createdAt,value
2017-12-12T00:00:06.712Z,2.92
2017-12-12T00:01:06.618Z,2.93
2017-12-12T00:02:06.534Z,2.90
2017-12-12T00:03:06.629Z,2.82
2017-12-12T00:04:06.485Z,2.86
2017-12-12T00:05:06.645Z,2.74
2017-12-12T00:06:06.424Z,2.65
2017-12-12T00:07:06.551Z,2.60
2017-12-12T00:08:06.371Z,2.57
2017-12-12T00:09:06.463Z,2.51
2017-12-12T00:10:06.317Z,2.49
2017-12-12T00:11:06.471Z,2.35
2017-12-12T00:12:06.260Z,2.36
2017-12-12T00:13:06.233Z,2.24
2017-12-12T00:14:06.199Z,2.33
2017-12-12T00:15:06.291Z,2.20
2017-12-12T00:16:06.145Z,2.17
2017-12-12T00:17:06.306Z,2.14
2017-12-12T00:18:06.087Z,2.18
2017-12-12T00:19:06.232Z,2.11
2017-12-12T00:20:06.031Z,2.10
2017-12-12T00:21:06.124Z,2.11
2017-12-12T00:22:05.977Z,2.04
2017-12-12T00:23:05.951Z,2.06
2017-12-12T00:24:05.916Z,2.04
2017-12-12T00:25:06.046Z,2.06
2017-12-12T00:26:05.862Z,1.99
2017-12-12T00:27:05.968Z,1.97
2017-12-12T00:28:05.800Z,1.95
2017-12-12T00:29:05.779Z,1.97
2017-12-12T00:30:05.748Z,1.97
2017-12-12T00:31:05.881Z,2.07
2017-12-12T00:32:05.686Z,2.00
2017-12-12T00:33:05.795Z,1.97
2017-12-12T00:34:05.635Z,2.00
2017-12-12T00:35:05.803Z,2.00
2017-12-12T00:36:05.575Z,1.94
2017-12-12T00:37:05.711Z,1.91
2017-12-12T00:38:05.727Z,1.99
2017-12-12T00:39:05.493Z,1.87
2017-12-12T00:40:05.628Z,1.80
2017-12-12T00:41:05.429Z,1.80
2017-12-12T00:42:06.570Z,1.74
2017-12-12T00:43:05.381Z,1.68
2017-12-12T00:44:05.347Z,1.67
2017-12-12T00:45:05.467Z,1.59
2017-12-12T00:46:05.288Z,1.74
2017-12-12T00:47:05.372Z,1.70
2017-12-12T00:48:05.230Z,1.68
2017-12-12T00:49:05.382Z,1.63
2017-12-12T00:50:05.175Z,1.58
2017-12-12T00:51:05.286Z,1.53
2017-12-12T00:52:05.121Z,1.52
2017-12-12T00:53:05.090Z,1.48
2017-12-12T00:54:05.200Z,1.52
2017-12-12T00:55:05.030Z,1.49
2017-12-12T00:56:05.136Z,1.48
2017-12-12T00:57:04.974Z,1.42
2017-12-12T00:58:04.941Z,1.48
2017-12-12T00:59:04.912Z,1.49
2017-12-12T01:00:05.035Z,1.53
2017-12-12T01:01:04.853Z,1.48
2017-12-12T01:02:04.943Z,1.49
2017-12-12T01:03:04.802Z,1.55
2017-12-12T01:04:04.958Z,1.55
2017-12-12T01:05:04.744Z,1.55
2017-12-12T01:06:04.867Z,1.52
2017-12-12T01:07:04.690Z,1.50
2017-12-12T01:08:04.703Z,1.48
2017-12-12T01:09:04.623Z,1.44
2017-12-12T01:10:04.692Z,1.50
2017-12-12T01:11:04.566Z,1.52
2017-12-12T01:12:04.697Z,1.38
2017-12-12T01:13:04.603Z,1.49
2017-12-12T01:14:04.484Z,1.32
2017-12-12T01:15:04.612Z,1.49
2017-12-12T01:16:04.425Z,1.44
2017-12-12T01:17:04.524Z,1.49
2017-12-12T01:18:04.365Z,1.42
2017-12-12T01:19:04.433Z,1.48
2017-12-12T01:20:04.310Z,1.49
2017-12-12T01:21:04.446Z,1.49
2017-12-12T01:22:05.376Z,1.49
2017-12-12T01:23:04.255Z,1.56
2017-12-12T01:24:04.362Z,1.52
2017-12-12T01:25:04.169Z,1.49
2017-12-12T01:26:04.271Z,1.52
2017-12-12T01:27:04.109Z,1.52
2017-12-12T01:28:04.074Z,1.50
2017-12-12T01:29:04.190Z,1.52
2017-12-12T01:30:04.017Z,1.48
2017-12-12T01:31:04.097Z,1.53
2017-12-12T01:32:03.959Z,1.50
2017-12-12T01:33:04.005Z,1.50
2017-12-12T01:34:03.908Z,1.52
2017-12-12T01:35:04.022Z,1.42
2017-12-12T01:36:03.848Z,1.60
2017-12-12T01:37:03.820Z,1.56
2017-12-12T01:38:03.935Z,1.67
2017-12-12T01:39:03.766Z,1.68
2017-12-12T01:40:03.848Z,1.63
2017-12-12T01:41:03.706Z,1.60
2017-12-12T01:42:03.754Z,1.67
2017-12-12T01:43:03.643Z,1.60
2017-12-12T01:44:03.770Z,1.63
2017-12-12T01:45:03.588Z,1.58
2017-12-12T01:46:03.682Z,1.67
2017-12-12T01:47:03.530Z,1.59
2017-12-12T01:48:03.592Z,1.66
2017-12-12T01:49:03.473Z,1.53
2017-12-12T01:50:03.597Z,1.58
2017-12-12T01:51:03.416Z,1.60
2017-12-12T01:52:03.387Z,1.66
2017-12-12T01:53:03.411Z,1.60
2017-12-12T01:54:03.324Z,1.58
2017-12-12T01:55:03.424Z,1.67
2017-12-12T01:56:03.272Z,1.55
2017-12-12T01:57:03.241Z,1.60
2017-12-12T01:58:03.213Z,1.63
2017-12-12T01:59:03.244Z,1.55
2017-12-12T02:00:03.154Z,1.68
2017-12-12T02:01:03.255Z,1.62
2017-12-12T02:02:03.098Z,1.55
2017-12-12T02:03:03.165Z,1.68
2017-12-12T02:04:03.043Z,1.68
2017-12-12T02:05:03.074Z,1.62
2017-12-12T02:06:02.982Z,1.52
2017-12-12T02:07:03.092Z,1.63
2017-12-12T02:08:02.926Z,1.58
2017-12-12T02:09:02.999Z,1.55
2017-12-12T02:10:02.869Z,1.66
2017-12-12T02:11:02.909Z,1.56
2017-12-12T02:12:02.811Z,1.60
2017-12-12T02:13:02.921Z,1.56
2017-12-12T02:14:02.748Z,1.56
2017-12-12T02:15:02.833Z,1.71
2017-12-12T02:16:02.688Z,1.66
2017-12-12T02:17:02.740Z,1.56
2017-12-12T02:18:02.635Z,1.68
2017-12-12T02:19:02.755Z,1.66
2017-12-12T02:20:02.575Z,1.66
2017-12-12T02:21:02.553Z,1.73
2017-12-12T02:22:02.517Z,1.60
2017-12-12T02:23:02.574Z,1.56
2017-12-12T02:24:02.458Z,1.60
2017-12-12T02:25:02.481Z,1.62
2017-12-12T02:26:02.401Z,1.70
2017-12-12T02:27:02.378Z,1.62
2017-12-12T02:28:02.396Z,1.68
2017-12-12T02:29:02.319Z,1.53
2017-12-12T02:30:02.411Z,1.63
2017-12-12T02:31:02.258Z,1.58
2017-12-12T02:32:03.357Z,1.63
2017-12-12T02:33:02.219Z,1.62
2017-12-12T02:34:02.231Z,1.63
2017-12-12T02:35:02.142Z,1.58
2017-12-12T02:36:02.116Z,1.58
2017-12-12T02:37:02.149Z,1.67
2017-12-12T02:38:02.055Z,1.66
2017-12-12T02:39:02.159Z,1.66
2017-12-12T02:40:02.004Z,1.70
2017-12-12T02:41:02.069Z,1.74
2017-12-12T02:42:01.940Z,1.68
2017-12-12T02:43:01.976Z,1.70
2017-12-12T02:44:01.889Z,1.66
2017-12-12T02:45:01.889Z,1.68
2017-12-12T02:46:01.824Z,1.70
2017-12-12T02:47:01.902Z,1.70
2017-12-12T02:48:01.773Z,1.60
2017-12-12T02:49:01.812Z,1.68
2017-12-12T02:50:01.708Z,1.73
2017-12-12T02:51:01.696Z,1.71
2017-12-12T02:52:01.727Z,1.67
2017-12-12T02:53:01.628Z,1.67
2017-12-12T02:54:01.638Z,1.73
2017-12-12T02:55:01.570Z,1.70
2017-12-12T02:56:01.536Z,1.73
2017-12-12T02:57:01.509Z,1.63
2017-12-12T02:58:01.660Z,1.67
2017-12-12T02:59:01.454Z,1.81
2017-12-12T03:00:01.571Z,1.78
2017-12-12T03:01:01.392Z,1.78
2017-12-12T03:02:02.505Z,1.78
2017-12-12T03:03:01.340Z,1.76
2017-12-12T03:04:01.493Z,1.78
2017-12-12T03:05:01.275Z,1.80
2017-12-12T03:06:01.425Z,1.85
2017-12-12T03:07:01.224Z,1.80
2017-12-12T03:08:01.312Z,1.81
2017-12-12T03:09:01.167Z,1.78
2017-12-12T03:10:01.324Z,1.87
2017-12-12T03:11:01.102Z,1.78
2017-12-12T03:12:02.265Z,1.81
2017-12-12T03:13:01.045Z,1.78
2017-12-12T03:14:01.148Z,1.78
2017-12-12T03:15:00.990Z,1.80
2017-12-12T03:16:01.157Z,1.89
2017-12-12T03:17:00.934Z,1.88
2017-12-12T03:18:01.068Z,1.88
2017-12-12T03:19:00.875Z,1.91
2017-12-12T03:20:00.978Z,1.99
2017-12-12T03:21:00.818Z,1.94
2017-12-12T03:22:01.912Z,1.95
2017-12-12T03:23:00.894Z,1.91
2017-12-12T03:24:00.734Z,1.91
2017-12-12T03:25:00.906Z,1.95
2017-12-12T03:26:00.672Z,1.95
2017-12-12T03:27:00.817Z,1.95
2017-12-12T03:28:00.615Z,1.94
2017-12-12T03:29:00.593Z,1.92
2017-12-12T03:30:00.731Z,1.87
2017-12-12T03:31:00.552Z,1.92
2017-12-12T03:32:01.667Z,1.80
2017-12-12T03:33:00.477Z,1.81
2017-12-12T03:34:00.551Z,1.80
2017-12-12T03:35:00.419Z,1.81
2017-12-12T03:36:00.561Z,1.87
2017-12-12T03:37:00.363Z,1.78
2017-12-12T03:38:00.471Z,1.81
2017-12-12T03:39:00.305Z,1.85
2017-12-12T03:40:00.382Z,1.81
2017-12-12T03:41:00.246Z,1.80
2017-12-12T03:42:00.394Z,1.77
2017-12-12T03:43:00.183Z,1.80
2017-12-12T03:44:00.309Z,1.78
2017-12-12T03:45:00.132Z,1.71
2017-12-12T03:46:00.096Z,1.71
2017-12-12T03:47:00.075Z,1.70
2017-12-12T03:48:00.228Z,1.63
2017-12-12T03:49:00.016Z,1.68
2017-12-12T03:50:01.164Z,1.67
2017-12-12T03:50:59.960Z,1.63
2017-12-12T03:51:59.924Z,1.78
2017-12-12T03:52:59.899Z,1.74
2017-12-12T03:54:00.068Z,1.77
2017-12-12T03:54:59.842Z,1.74
2017-12-12T03:56:00.991Z,1.76
2017-12-12T03:56:59.783Z,1.77
2017-12-12T03:57:59.757Z,1.76
2017-12-12T03:58:59.884Z,1.77
2017-12-12T03:59:59.697Z,1.78
2017-12-12T04:00:59.793Z,1.70
2017-12-12T04:01:59.642Z,1.76
2017-12-12T04:02:59.703Z,1.73
2017-12-12T04:03:59.582Z,1.80
2017-12-12T04:04:59.719Z,1.80
2017-12-12T04:05:59.529Z,1.78
2017-12-12T04:06:59.627Z,1.80
2017-12-12T04:07:59.469Z,1.73
2017-12-12T04:08:59.542Z,1.80
2017-12-12T04:09:59.410Z,1.80
2017-12-12T04:10:59.550Z,1.80
2017-12-12T04:11:59.351Z,1.80
2017-12-12T04:12:59.457Z,1.71
2017-12-12T04:13:59.295Z,1.84
2017-12-12T04:14:59.369Z,1.78
2017-12-12T04:15:59.238Z,1.81
2017-12-12T04:16:59.378Z,1.81
2017-12-12T04:17:59.183Z,1.81
2017-12-12T04:18:59.289Z,1.81
2017-12-12T04:19:59.123Z,1.80
2017-12-12T04:20:59.095Z,1.84
2017-12-12T04:21:59.062Z,1.87
2017-12-12T04:22:59.214Z,1.77
2017-12-12T04:23:59.007Z,1.80
2017-12-12T04:24:59.128Z,1.94
2017-12-12T04:25:58.951Z,1.95
2017-12-12T04:26:58.925Z,1.91
2017-12-12T04:27:58.891Z,1.95
2017-12-12T04:28:58.943Z,1.95
2017-12-12T04:29:58.830Z,1.95
2017-12-12T04:30:58.954Z,1.95
2017-12-12T04:31:58.773Z,1.87
2017-12-12T04:32:58.749Z,1.94
2017-12-12T04:33:58.850Z,1.88
2017-12-12T04:34:58.701Z,1.92
2017-12-12T04:35:58.783Z,1.91
2017-12-12T04:36:58.630Z,1.88
2017-12-12T04:37:58.692Z,1.95
2017-12-12T04:38:58.575Z,1.84
2017-12-12T04:39:58.699Z,1.87
2017-12-12T04:40:58.515Z,1.95
2017-12-12T04:41:58.612Z,1.91
2017-12-12T04:42:58.461Z,1.87
2017-12-12T04:43:58.426Z,1.92
2017-12-12T04:44:58.405Z,1.91
2017-12-12T04:45:58.427Z,1.92
2017-12-12T04:46:58.345Z,1.92
2017-12-12T04:47:58.440Z,1.91
2017-12-12T04:48:58.289Z,1.91
2017-12-12T04:49:58.254Z,1.89
2017-12-12T04:50:58.238Z,1.84
2017-12-12T04:51:59.304Z,1.78
2017-12-12T04:52:58.173Z,1.84
2017-12-12T04:53:58.277Z,1.80
2017-12-12T04:54:58.115Z,1.78
2017-12-12T04:55:58.084Z,1.81
2017-12-12T04:56:58.193Z,1.78
2017-12-12T04:57:58.027Z,1.78
2017-12-12T04:58:58.099Z,1.77
2017-12-12T04:59:57.972Z,1.80
2017-12-12T05:00:58.009Z,1.80
2017-12-12T05:01:57.911Z,1.76
2017-12-12T05:02:58.019Z,1.77
2017-12-12T05:03:57.856Z,1.81
2017-12-12T05:04:57.931Z,1.80
2017-12-12T05:05:57.795Z,1.77
2017-12-12T05:06:57.841Z,1.80
2017-12-12T05:07:57.741Z,1.78
2017-12-12T05:08:57.852Z,1.84
2017-12-12T05:09:57.680Z,1.80
2017-12-12T05:10:57.762Z,1.77
2017-12-12T05:11:57.624Z,1.81
2017-12-12T05:12:57.660Z,1.80
2017-12-12T05:13:57.654Z,1.85
2017-12-12T05:14:57.535Z,1.80
2017-12-12T05:15:57.564Z,1.78
2017-12-12T05:16:57.487Z,1.81
2017-12-12T05:17:57.448Z,1.81
2017-12-12T05:18:57.423Z,1.80
2017-12-12T05:19:57.490Z,1.81
2017-12-12T05:20:57.371Z,1.85
2017-12-12T05:21:57.401Z,1.78
2017-12-12T05:22:57.306Z,1.84
2017-12-12T05:23:57.283Z,1.88
2017-12-12T05:24:57.316Z,1.92
2017-12-12T05:25:57.231Z,1.84
2017-12-12T05:26:57.224Z,1.92
2017-12-12T05:27:57.161Z,1.87
2017-12-12T05:28:57.136Z,1.87
2017-12-12T05:29:57.107Z,1.89
2017-12-12T05:30:57.155Z,1.89
2017-12-12T05:31:57.046Z,1.94
2017-12-12T05:32:57.060Z,1.89
2017-12-12T05:33:57.073Z,1.91
2017-12-12T05:34:56.961Z,1.99
2017-12-12T05:35:56.984Z,1.92
2017-12-12T05:36:56.909Z,1.95
2017-12-12T05:37:56.890Z,1.95
2017-12-12T05:38:56.841Z,1.99
2017-12-12T05:39:56.818Z,1.92
2017-12-12T05:40:56.812Z,1.97
2017-12-12T05:41:56.760Z,1.94
2017-12-12T05:42:56.826Z,1.97
2017-12-12T05:43:56.726Z,1.95
2017-12-12T05:44:56.671Z,1.95
2017-12-12T05:45:56.737Z,1.94
2017-12-12T05:46:56.624Z,1.99
2017-12-12T05:47:56.650Z,1.95
2017-12-12T05:48:56.558Z,1.91
2017-12-12T05:49:56.565Z,1.94
2017-12-12T05:50:56.501Z,1.95
2017-12-12T05:51:57.500Z,1.97
2017-12-12T05:52:56.439Z,1.92
2017-12-12T05:53:56.488Z,1.91
2017-12-12T05:54:56.505Z,1.91
2017-12-12T05:55:56.357Z,1.89
2017-12-12T05:56:56.410Z,1.91
2017-12-12T05:57:56.299Z,1.89
2017-12-12T05:58:56.319Z,1.99
2017-12-12T05:59:56.240Z,1.92
2017-12-12T06:00:56.217Z,1.97
2017-12-12T06:01:57.257Z,1.94
2017-12-12T06:02:56.317Z,1.92
2017-12-12T06:03:56.262Z,1.95
2017-12-12T06:04:56.118Z,1.89
2017-12-12T06:05:56.093Z,1.91
2017-12-12T06:06:56.062Z,1.94
2017-12-12T06:07:56.008Z,1.94
2017-12-12T06:08:56.076Z,1.91
2017-12-12T06:09:55.950Z,1.94
2017-12-12T06:10:55.988Z,1.92
2017-12-12T06:11:55.892Z,1.91
2017-12-12T06:12:55.894Z,1.88
2017-12-12T06:13:55.837Z,1.94
2017-12-12T06:14:56.007Z,1.92
2017-12-12T06:15:55.910Z,1.87
2017-12-12T06:16:55.754Z,1.94
2017-12-12T06:17:55.924Z,1.81
2017-12-12T06:18:55.690Z,1.80
2017-12-12T06:19:55.833Z,1.80
2017-12-12T06:20:55.639Z,1.78
2017-12-12T06:21:56.606Z,1.78
2017-12-12T06:22:55.582Z,1.80
2017-12-12T06:23:55.554Z,1.84
2017-12-12T06:24:55.517Z,1.80
2017-12-12T06:25:55.528Z,1.80
2017-12-12T06:26:55.468Z,1.81
2017-12-12T06:27:55.438Z,1.80
2017-12-12T06:28:55.403Z,1.80
2017-12-12T06:29:55.387Z,1.78
2017-12-12T06:30:55.344Z,1.84
2017-12-12T06:31:55.324Z,1.74
2017-12-12T06:32:55.294Z,1.77
2017-12-12T06:33:55.340Z,1.74
2017-12-12T06:34:55.229Z,1.80
2017-12-12T06:35:55.209Z,1.80
2017-12-12T06:36:55.177Z,1.80
2017-12-12T06:37:55.222Z,1.80
2017-12-12T06:38:55.114Z,1.77
2017-12-12T06:39:55.101Z,1.78
2017-12-12T06:40:55.064Z,1.80
2017-12-12T06:41:55.033Z,1.88
2017-12-12T06:42:55.000Z,1.81
2017-12-12T06:43:54.977Z,1.80
2017-12-12T06:44:54.947Z,1.91
2017-12-12T06:45:54.927Z,1.91
2017-12-12T06:46:54.889Z,1.87
2017-12-12T06:47:54.864Z,1.92
2017-12-12T06:48:54.831Z,1.91
2017-12-12T06:49:54.796Z,1.91
2017-12-12T06:50:54.776Z,1.92
2017-12-12T06:51:55.747Z,1.95
2017-12-12T06:52:54.716Z,1.94
2017-12-12T06:53:54.690Z,1.91
2017-12-12T06:54:54.660Z,2.00
2017-12-12T06:55:54.628Z,1.91
2017-12-12T06:56:54.609Z,1.95
2017-12-12T06:57:54.566Z,1.99
2017-12-12T06:58:54.548Z,1.99
2017-12-12T06:59:54.514Z,1.95
2017-12-12T07:00:54.486Z,1.94
2017-12-12T07:01:54.461Z,2.04
2017-12-12T07:02:54.427Z,2.08
2017-12-12T07:03:54.404Z,2.04
2017-12-12T07:04:54.383Z,2.02
2017-12-12T07:05:54.341Z,2.04
2017-12-12T07:06:54.308Z,1.99
2017-12-12T07:07:54.282Z,1.99
2017-12-12T07:08:54.254Z,2.08
2017-12-12T07:09:54.224Z,2.08
2017-12-12T07:10:54.203Z,2.13
2017-12-12T07:11:54.169Z,2.14
2017-12-12T07:12:54.142Z,2.13
2017-12-12T07:13:54.123Z,2.10
2017-12-12T07:14:54.086Z,2.11
2017-12-12T07:15:54.054Z,2.18
2017-12-12T07:16:54.046Z,2.15
2017-12-12T07:17:53.997Z,2.18
2017-12-12T07:18:53.978Z,2.20
2017-12-12T07:19:53.934Z,2.17
2017-12-12T07:20:53.924Z,2.18
2017-12-12T07:21:53.873Z,2.14
2017-12-12T07:22:53.856Z,2.17
2017-12-12T07:23:53.818Z,2.20
2017-12-12T07:24:53.795Z,2.20
2017-12-12T07:25:53.764Z,2.31
2017-12-12T07:26:53.755Z,2.31
2017-12-12T07:27:53.704Z,2.32
2017-12-12T07:28:53.688Z,2.31
2017-12-12T07:29:53.652Z,2.33
2017-12-12T07:30:53.622Z,2.29
2017-12-12T07:31:54.595Z,2.36
2017-12-12T07:32:53.569Z,2.33
2017-12-12T07:33:53.547Z,2.28
2017-12-12T07:34:53.499Z,2.32
2017-12-12T07:35:53.483Z,2.31
2017-12-12T07:36:53.452Z,2.36
2017-12-12T07:37:53.425Z,2.35
2017-12-12T07:38:53.399Z,2.32
2017-12-12T07:39:53.368Z,2.39
2017-12-12T07:40:53.332Z,2.33
2017-12-12T07:41:53.309Z,2.36
2017-12-12T07:42:53.275Z,2.33
2017-12-12T07:43:53.253Z,2.38
2017-12-12T07:44:53.219Z,2.38
2017-12-12T07:45:53.194Z,2.39
2017-12-12T07:46:53.168Z,2.38
2017-12-12T07:47:53.199Z,2.36
2017-12-12T07:48:53.107Z,2.39
2017-12-12T07:49:53.080Z,2.39
2017-12-12T07:50:53.049Z,2.44
2017-12-12T07:51:54.014Z,2.44
2017-12-12T07:52:52.990Z,2.44
2017-12-12T07:53:52.959Z,2.38
2017-12-12T07:54:52.943Z,2.46
2017-12-12T07:55:52.902Z,2.36
2017-12-12T07:56:52.876Z,2.33
2017-12-12T07:57:52.845Z,2.42
2017-12-12T07:58:52.812Z,2.44
2017-12-12T07:59:52.789Z,2.49
2017-12-12T08:00:52.768Z,2.51
2017-12-12T08:01:52.732Z,2.44
2017-12-12T08:02:52.713Z,2.44
2017-12-12T08:03:52.674Z,2.51
2017-12-12T08:04:52.646Z,2.44
2017-12-12T08:05:52.623Z,2.54
2017-12-12T08:06:52.592Z,2.44
2017-12-12T08:07:52.565Z,2.54
2017-12-12T08:08:52.529Z,2.49
2017-12-12T08:09:52.513Z,2.46
2017-12-12T08:10:52.469Z,2.46
2017-12-12T08:11:53.456Z,2.49
2017-12-12T08:12:52.425Z,2.47
2017-12-12T08:13:52.407Z,2.51
2017-12-12T08:14:52.410Z,2.53
2017-12-12T08:15:52.332Z,2.50
2017-12-12T08:16:52.349Z,2.60
2017-12-12T08:17:52.361Z,2.53
2017-12-12T08:18:52.248Z,2.56
2017-12-12T08:19:52.270Z,2.50
2017-12-12T08:20:52.190Z,2.49
2017-12-12T08:21:52.167Z,2.54
2017-12-12T08:22:52.142Z,2.51
2017-12-12T08:23:52.222Z,2.50
2017-12-12T08:24:52.083Z,2.54
2017-12-12T08:25:52.097Z,2.51
2017-12-12T08:26:52.115Z,2.57
2017-12-12T08:27:52.005Z,2.56
2017-12-12T08:28:52.012Z,2.60
2017-12-12T08:29:51.928Z,2.62
2017-12-12T08:30:51.974Z,2.60
2017-12-12T08:31:52.170Z,2.61
2017-12-12T08:32:51.945Z,2.54
2017-12-12T08:33:52.416Z,2.61
2017-12-12T08:34:51.830Z,2.51
2017-12-12T08:35:52.033Z,2.60
2017-12-12T08:36:52.860Z,2.57
2017-12-12T08:37:52.250Z,2.57
2017-12-12T08:38:51.672Z,2.62
2017-12-12T08:39:51.678Z,2.60
2017-12-12T08:41:53.991Z,2.62
2017-12-12T08:42:51.590Z,2.56
2017-12-12T08:43:51.595Z,2.60
2017-12-12T08:44:51.553Z,2.67
2017-12-12T08:45:51.520Z,2.67
2017-12-12T08:46:51.451Z,2.72
2017-12-12T08:47:51.538Z,2.68
2017-12-12T08:48:51.392Z,2.71
2017-12-12T08:49:51.371Z,2.67
2017-12-12T08:50:51.343Z,2.67
2017-12-12T08:51:52.367Z,2.75
2017-12-12T08:52:51.281Z,2.65
2017-12-12T08:53:51.347Z,2.75
2017-12-12T08:54:51.223Z,2.74
2017-12-12T08:55:51.195Z,2.67
2017-12-12T08:56:51.160Z,2.71
2017-12-12T08:57:51.173Z,2.67
2017-12-12T08:58:51.118Z,2.71
2017-12-12T08:59:51.198Z,2.72
2017-12-12T09:00:51.065Z,2.75
2017-12-12T09:01:52.115Z,2.89
2017-12-12T09:02:50.995Z,2.87
2017-12-12T09:03:50.999Z,2.87
2017-12-12T09:04:50.931Z,2.89
2017-12-12T09:05:51.016Z,2.83
2017-12-12T09:06:50.893Z,2.82
2017-12-12T09:07:50.929Z,2.85
2017-12-12T09:08:50.823Z,2.92
2017-12-12T09:09:50.816Z,2.87
2017-12-12T09:10:50.777Z,3.03
2017-12-12T09:11:51.860Z,3.03
2017-12-12T09:12:50.710Z,3.05
2017-12-12T09:13:50.755Z,2.97
2017-12-12T09:14:50.672Z,3.04
2017-12-12T09:15:50.647Z,3.05
2017-12-12T09:16:50.626Z,3.01
2017-12-12T09:17:52.909Z,2.97
2017-12-12T09:18:50.536Z,2.98
2017-12-12T09:19:50.588Z,3.01
2017-12-12T09:20:50.486Z,2.95
2017-12-12T09:21:50.469Z,3.01
2017-12-12T09:22:50.436Z,3.00
2017-12-12T09:23:50.405Z,2.98
2017-12-12T09:24:50.386Z,2.89
2017-12-12T09:25:50.339Z,2.97
2017-12-12T09:26:50.316Z,3.01
2017-12-12T09:27:50.282Z,2.86
2017-12-12T09:28:50.261Z,2.86
2017-12-12T09:29:50.231Z,2.85
2017-12-12T09:30:50.211Z,2.93
2017-12-12T09:31:50.179Z,2.89
2017-12-12T09:32:50.147Z,2.92
2017-12-12T09:33:50.159Z,2.95
2017-12-12T09:34:50.087Z,2.86
2017-12-12T09:35:50.129Z,3.01
2017-12-12T09:36:50.033Z,3.00
2017-12-12T09:37:50.010Z,2.93
2017-12-12T09:38:49.985Z,2.97
2017-12-12T09:39:52.281Z,3.00
2017-12-12T09:40:51.034Z,2.93
2017-12-12T09:41:49.894Z,2.95
2017-12-12T09:42:49.883Z,2.97
2017-12-12T09:43:49.828Z,3.01
2017-12-12T09:44:49.932Z,2.93
2017-12-12T09:45:49.786Z,3.07
2017-12-12T09:46:49.833Z,2.97
2017-12-12T09:47:49.841Z,3.03
2017-12-12T09:48:49.700Z,3.01
2017-12-12T09:49:49.751Z,3.05
2017-12-12T09:50:49.636Z,3.03
2017-12-12T09:51:50.678Z,2.93
2017-12-12T09:52:49.585Z,2.86
2017-12-12T09:53:49.567Z,2.87
2017-12-12T09:54:49.530Z,2.95
2017-12-12T09:55:49.577Z,2.93
2017-12-12T09:56:49.469Z,2.89
2017-12-12T09:57:49.484Z,2.89
2017-12-12T09:58:49.405Z,2.89
2017-12-12T09:59:49.504Z,2.85
2017-12-12T10:00:49.350Z,2.83
2017-12-12T10:01:50.435Z,2.69
2017-12-12T10:02:49.294Z,2.75
2017-12-12T10:03:49.320Z,2.74
2017-12-12T10:04:49.263Z,2.85
2017-12-12T10:05:49.227Z,2.89
2017-12-12T10:06:49.191Z,2.85
2017-12-12T10:07:49.240Z,3.01
2017-12-12T10:08:49.141Z,3.00
2017-12-12T10:09:49.148Z,3.00
2017-12-12T10:10:49.073Z,3.04
2017-12-12T10:11:49.061Z,3.01
2017-12-12T10:12:49.017Z,3.08
2017-12-12T10:13:48.983Z,3.04
2017-12-12T10:14:48.954Z,3.07
2017-12-12T10:15:48.985Z,3.03
2017-12-12T10:16:48.903Z,2.92
2017-12-12T10:17:48.873Z,2.86
2017-12-12T10:18:48.837Z,2.95
2017-12-12T10:19:48.808Z,2.93
2017-12-12T10:20:48.785Z,2.95
2017-12-12T10:21:48.815Z,3.01
2017-12-12T10:22:48.723Z,3.04
2017-12-12T10:23:48.706Z,2.95
2017-12-12T10:24:48.670Z,3.05
2017-12-12T10:25:48.737Z,3.00
2017-12-12T10:26:48.613Z,3.01
2017-12-12T10:27:49.876Z,2.90
2017-12-12T10:28:48.591Z,2.97
2017-12-12T10:29:48.720Z,2.89
2017-12-12T10:30:48.977Z,2.90
2017-12-12T10:31:48.614Z,2.85
2017-12-12T10:32:50.055Z,3.01
2017-12-12T10:33:50.324Z,2.98
2017-12-12T10:34:49.843Z,3.04
2017-12-12T10:35:48.674Z,3.03
2017-12-12T10:36:48.335Z,3.01
2017-12-12T10:37:48.418Z,3.04
2017-12-12T10:38:48.276Z,3.03
2017-12-12T10:39:48.311Z,3.05
2017-12-12T10:40:48.221Z,3.00
2017-12-12T10:41:48.223Z,2.97
2017-12-12T10:42:48.167Z,3.04
2017-12-12T10:43:48.147Z,2.98
2017-12-12T10:44:48.113Z,3.03
2017-12-12T10:45:48.084Z,3.00
2017-12-12T10:46:48.077Z,3.04
2017-12-12T10:47:48.058Z,3.00
2017-12-12T10:48:47.995Z,3.00
2017-12-12T10:49:48.022Z,2.98
2017-12-12T10:50:47.936Z,3.14
2017-12-12T10:51:47.980Z,3.21
2017-12-12T10:52:47.886Z,3.14
2017-12-12T10:53:47.857Z,3.19
2017-12-12T10:54:47.841Z,3.21
2017-12-12T10:55:47.800Z,3.18
2017-12-12T10:56:47.804Z,3.26
2017-12-12T10:57:47.738Z,3.26
2017-12-12T10:58:47.711Z,3.25
2017-12-12T10:59:47.688Z,3.22
2017-12-12T11:00:47.729Z,3.18
2017-12-12T11:01:47.657Z,3.21
2017-12-12T11:02:48.662Z,3.19
2017-12-12T11:03:47.573Z,3.28
2017-12-12T11:04:47.545Z,3.28
2017-12-12T11:05:47.513Z,3.31
2017-12-12T11:06:47.557Z,3.23
2017-12-12T11:07:47.459Z,3.28
2017-12-12T11:08:47.468Z,3.26
2017-12-12T11:09:47.398Z,3.29
2017-12-12T11:10:47.476Z,3.26
2017-12-12T11:11:47.348Z,3.25
2017-12-12T11:12:47.389Z,3.29
2017-12-12T11:13:47.287Z,3.22
2017-12-12T11:14:47.258Z,3.19
2017-12-12T11:15:47.304Z,3.16
2017-12-12T11:16:47.212Z,3.29
2017-12-12T11:17:47.215Z,3.26
2017-12-12T11:18:47.144Z,3.22
2017-12-12T11:19:47.226Z,3.26
2017-12-12T11:20:47.136Z,3.34
2017-12-12T11:21:47.138Z,3.26
2017-12-12T11:22:47.040Z,3.28
2017-12-12T11:23:48.076Z,3.31
2017-12-12T11:24:46.978Z,3.26
2017-12-12T11:25:46.959Z,3.28
2017-12-12T11:26:46.964Z,3.36
2017-12-12T11:27:46.896Z,3.31
2017-12-12T11:28:46.974Z,3.34
2017-12-12T11:29:46.841Z,3.21
2017-12-12T11:30:46.889Z,3.31
2017-12-12T11:31:46.785Z,3.11
2017-12-12T11:32:46.758Z,3.28
2017-12-12T11:33:46.729Z,3.26
2017-12-12T11:34:46.805Z,3.19
2017-12-12T11:35:46.668Z,3.13
2017-12-12T11:36:46.639Z,3.22
2017-12-12T11:37:46.638Z,3.22
2017-12-12T11:38:46.599Z,3.26
2017-12-12T11:39:46.560Z,3.37
2017-12-12T11:40:46.537Z,3.25
2017-12-12T11:41:46.506Z,3.25
2017-12-12T11:42:46.551Z,3.19
2017-12-12T11:43:46.450Z,3.29
2017-12-12T11:44:46.462Z,3.28
2017-12-12T11:45:46.392Z,3.28
2017-12-12T11:46:46.473Z,3.29
2017-12-12T11:47:46.345Z,3.34
2017-12-12T11:48:46.382Z,3.41
2017-12-12T11:49:46.282Z,3.34
2017-12-12T11:50:46.250Z,3.32
2017-12-12T11:51:46.297Z,3.29
2017-12-12T11:52:46.200Z,3.36
2017-12-12T11:53:46.188Z,3.37
2017-12-12T11:54:46.142Z,3.40
2017-12-12T11:55:46.118Z,3.40
2017-12-12T11:56:46.089Z,3.36
2017-12-12T11:57:46.130Z,3.50
2017-12-12T11:58:46.052Z,3.36
2017-12-12T11:59:46.009Z,3.41
2017-12-12T12:00:46.049Z,3.36
2017-12-12T12:01:45.948Z,3.31
2017-12-12T12:02:46.919Z,3.40
2017-12-12T12:03:45.884Z,3.41
2017-12-12T12:04:45.972Z,3.47
2017-12-12T12:05:45.832Z,3.44
2017-12-12T12:06:45.877Z,3.37
2017-12-12T12:07:45.778Z,3.37
2017-12-12T12:08:45.786Z,3.32
2017-12-12T12:09:45.716Z,3.40
2017-12-12T12:10:45.696Z,3.42
2017-12-12T12:11:45.665Z,3.45
2017-12-12T12:12:45.714Z,3.47
2017-12-12T12:13:45.611Z,3.48
2017-12-12T12:14:45.624Z,3.51
2017-12-12T12:15:45.552Z,3.50
2017-12-12T12:16:45.629Z,3.51
2017-12-12T12:17:45.501Z,3.59
2017-12-12T12:18:45.546Z,3.62
2017-12-12T12:19:45.440Z,3.55
2017-12-12T12:20:45.456Z,3.60
2017-12-12T12:21:45.385Z,3.56
2017-12-12T12:22:45.356Z,3.55
2017-12-12T12:23:45.356Z,3.62
2017-12-12T12:24:45.374Z,3.53
2017-12-12T12:25:45.270Z,3.62
2017-12-12T12:26:45.281Z,3.60
2017-12-12T12:27:45.225Z,3.55
2017-12-12T12:28:45.293Z,3.63
2017-12-12T12:29:45.164Z,3.65
2017-12-12T12:30:45.201Z,3.76
2017-12-12T12:31:45.108Z,3.74
2017-12-12T12:32:45.112Z,3.74
2017-12-12T12:33:45.051Z,3.76
2017-12-12T12:34:45.128Z,3.76
2017-12-12T12:35:44.995Z,3.65
2017-12-12T12:36:45.036Z,3.65
2017-12-12T12:37:44.947Z,3.68
2017-12-12T12:38:44.948Z,3.65
2017-12-12T12:39:44.952Z,3.58
2017-12-12T12:40:44.852Z,3.59
2017-12-12T12:41:44.834Z,3.48
2017-12-12T12:42:44.803Z,3.53
2017-12-12T12:43:44.871Z,3.50
2017-12-12T12:44:44.778Z,3.55
2017-12-12T12:45:44.714Z,3.55
2017-12-12T12:46:44.789Z,3.48
2017-12-12T12:47:44.656Z,3.53
2017-12-12T12:48:44.637Z,3.47
2017-12-12T12:49:44.603Z,3.50
2017-12-12T12:50:44.613Z,3.48
2017-12-12T12:51:44.544Z,3.48
2017-12-12T12:52:44.626Z,3.48
2017-12-12T12:53:45.326Z,3.42
2017-12-12T12:54:44.535Z,3.44
2017-12-12T12:55:44.486Z,3.40
2017-12-12T12:56:44.449Z,3.40
2017-12-12T12:57:44.382Z,3.44
2017-12-12T12:58:44.452Z,3.25
2017-12-12T12:59:44.326Z,3.31
2017-12-12T13:00:44.368Z,3.29
2017-12-12T13:01:44.271Z,3.31
2017-12-12T13:02:44.274Z,3.29
2017-12-12T13:03:44.211Z,3.42
2017-12-12T13:04:44.277Z,3.42
2017-12-12T13:05:45.280Z,3.34
2017-12-12T13:06:44.129Z,3.42
2017-12-12T13:07:44.137Z,3.34
2017-12-12T13:08:44.078Z,3.48
2017-12-12T13:09:44.055Z,3.37
2017-12-12T13:10:44.117Z,3.45
2017-12-12T13:11:43.991Z,3.48
2017-12-12T13:12:44.030Z,3.37
2017-12-12T13:13:43.969Z,3.42
2017-12-12T13:14:43.910Z,3.48
2017-12-12T13:15:43.993Z,3.50
2017-12-12T13:16:43.858Z,3.48
2017-12-12T13:17:43.855Z,3.47
2017-12-12T13:18:43.840Z,3.47